sensor_id;sensor_type;location;lat;lon;timestamp;pressure;altitude;pressure_sealevel;temperature;humidity
64853;BME280;56050;55.558;-4.644;2023-05-24T00:01:39;102707.03;;;13.47;63.70
64853;BME280;56050;55.558;-4.644;2023-05-24T00:04:07;102707.06;;;13.51;63.92
64853;BME280;56050;55.558;-4.644;2023-05-24T00:06:33;102704.34;;;13.51;63.86
64853;BME280;56050;55.558;-4.644;2023-05-24T00:09:04;102698.16;;;13.50;63.76
64853;BME280;56050;55.558;-4.644;2023-05-24T00:11:30;102695.03;;;13.48;63.75
64853;BME280;56050;55.558;-4.644;2023-05-24T00:13:55;102705.44;;;13.46;63.78
64853;BME280;56050;55.558;-4.644;2023-05-24T00:16:21;102703.44;;;13.43;63.95
64853;BME280;56050;55.558;-4.644;2023-05-24T00:18:46;102708.00;;;13.39;63.92
64853;BME280;56050;55.558;-4.644;2023-05-24T00:21:12;102703.66;;;13.35;64.17
64853;BME280;56050;55.558;-4.644;2023-05-24T00:23:38;102709.00;;;13.31;64.35
64853;BME280;56050;55.558;-4.644;2023-05-24T00:26:05;102708.16;;;13.27;64.49
64853;BME280;56050;55.558;-4.644;2023-05-24T00:28:30;102711.91;;;13.23;64.73
64853;BME280;56050;55.558;-4.644;2023-05-24T00:30:57;102717.69;;;13.21;64.90
64853;BME280;56050;55.558;-4.644;2023-05-24T00:33:22;102720.31;;;13.18;64.92
64853;BME280;56050;55.558;-4.644;2023-05-24T00:35:49;102712.56;;;13.16;64.92
64853;BME280;56050;55.558;-4.644;2023-05-24T00:38:18;102715.59;;;13.15;65.05
64853;BME280;56050;55.558;-4.644;2023-05-24T00:40:44;102708.63;;;13.14;65.27
64853;BME280;56050;55.558;-4.644;2023-05-24T00:43:09;102707.44;;;13.11;64.95
64853;BME280;56050;55.558;-4.644;2023-05-24T00:45:34;102707.78;;;13.10;65.17
64853;BME280;56050;55.558;-4.644;2023-05-24T00:48:00;102703.03;;;13.07;64.98
64853;BME280;56050;55.558;-4.644;2023-05-24T00:50:26;102693.38;;;13.06;64.98
64853;BME280;56050;55.558;-4.644;2023-05-24T00:52:51;102693.38;;;13.06;65.06
64853;BME280;56050;55.558;-4.644;2023-05-24T00:55:17;102693.38;;;13.06;65.05
64853;BME280;56050;55.558;-4.644;2023-05-24T00:57:42;102691.78;;;13.05;65.05
64853;BME280;56050;55.558;-4.644;2023-05-24T01:00:09;102704.91;;;13.03;65.14
64853;BME280;56050;55.558;-4.644;2023-05-24T01:02:35;102702.09;;;12.99;65.27
64853;BME280;56050;55.558;-4.644;2023-05-24T01:05:02;102713.28;;;12.98;65.23
64853;BME280;56050;55.558;-4.644;2023-05-24T01:08:14;102706.66;;;12.95;65.31
64853;BME280;56050;55.558;-4.644;2023-05-24T01:19:16;102692.34;;;12.94;64.96
64853;BME280;56050;55.558;-4.644;2023-05-24T01:24:35;102682.31;;;12.95;65.13
64853;BME280;56050;55.558;-4.644;2023-05-24T01:27:07;102666.84;;;12.95;65.18
64853;BME280;56050;55.558;-4.644;2023-05-24T01:29:34;102667.22;;;12.94;65.00
64853;BME280;56050;55.558;-4.644;2023-05-24T01:32:01;102666.44;;;12.93;65.06
64853;BME280;56050;55.558;-4.644;2023-05-24T01:34:27;102676.47;;;12.93;64.77
64853;BME280;56050;55.558;-4.644;2023-05-24T01:36:53;102670.25;;;12.92;64.92
64853;BME280;56050;55.558;-4.644;2023-05-24T01:39:19;102669.84;;;12.90;64.69
64853;BME280;56050;55.558;-4.644;2023-05-24T01:47:09;102676.41;;;12.89;64.58
64853;BME280;56050;55.558;-4.644;2023-05-24T01:49:41;102673.69;;;12.89;64.69
64853;BME280;56050;55.558;-4.644;2023-05-24T01:52:11;102663.63;;;12.90;64.67
64853;BME280;56050;55.558;-4.644;2023-05-24T01:54:43;102657.91;;;12.91;64.61
64853;BME280;56050;55.558;-4.644;2023-05-24T01:57:10;102664.16;;;12.95;64.48
64853;BME280;56050;55.558;-4.644;2023-05-24T01:59:37;102668.06;;;12.98;64.30
64853;BME280;56050;55.558;-4.644;2023-05-24T02:02:04;102669.63;;;12.99;64.39
64853;BME280;56050;55.558;-4.644;2023-05-24T02:04:30;102674.34;;;13.02;64.23
64853;BME280;56050;55.558;-4.644;2023-05-24T02:06:55;102668.94;;;13.02;64.17
64853;BME280;56050;55.558;-4.644;2023-05-24T02:09:21;102680.19;;;13.04;63.96
64853;BME280;56050;55.558;-4.644;2023-05-24T02:11:46;102679.38;;;13.04;64.02
64853;BME280;56050;55.558;-4.644;2023-05-24T02:14:11;102676.69;;;13.04;64.00
64853;BME280;56050;55.558;-4.644;2023-05-24T02:16:37;102677.47;;;13.04;63.80
64853;BME280;56050;55.558;-4.644;2023-05-24T02:19:07;102680.97;;;13.05;63.82
64853;BME280;56050;55.558;-4.644;2023-05-24T02:21:33;102674.75;;;13.04;63.88
64853;BME280;56050;55.558;-4.644;2023-05-24T02:23:58;102671.28;;;13.04;63.79
64853;BME280;56050;55.558;-4.644;2023-05-24T02:26:24;102676.25;;;13.02;63.78
64853;BME280;56050;55.558;-4.644;2023-05-24T02:28:50;102670.84;;;13.02;63.57
64853;BME280;56050;55.558;-4.644;2023-05-24T02:31:16;102675.06;;;12.99;63.80
64853;BME280;56050;55.558;-4.644;2023-05-24T02:33:42;102672.72;;;12.98;63.62
64853;BME280;56050;55.558;-4.644;2023-05-24T02:36:08;102674.97;;;12.95;63.64
64853;BME280;56050;55.558;-4.644;2023-05-24T02:38:33;102676.47;;;12.93;63.56
64853;BME280;56050;55.558;-4.644;2023-05-24T02:40:58;102668.72;;;12.91;63.62
64853;BME280;56050;55.558;-4.644;2023-05-24T02:43:24;102665.59;;;12.89;63.83
64853;BME280;56050;55.558;-4.644;2023-05-24T02:45:49;102669.41;;;12.88;63.95
64853;BME280;56050;55.558;-4.644;2023-05-24T02:48:15;102657.81;;;12.88;63.93
64853;BME280;56050;55.558;-4.644;2023-05-24T02:50:40;102661.31;;;12.88;63.76
64853;BME280;56050;55.558;-4.644;2023-05-24T02:53:06;102670.53;;;12.87;63.77
64853;BME280;56050;55.558;-4.644;2023-05-24T02:55:32;102655.09;;;12.88;63.75
64853;BME280;56050;55.558;-4.644;2023-05-24T02:57:58;102665.59;;;12.89;63.79
64853;BME280;56050;55.558;-4.644;2023-05-24T03:00:23;102667.50;;;12.89;63.91
64853;BME280;56050;55.558;-4.644;2023-05-24T03:02:49;102667.06;;;12.87;63.86
64853;BME280;56050;55.558;-4.644;2023-05-24T03:05:17;102651.56;;;12.84;64.00
64853;BME280;56050;55.558;-4.644;2023-05-24T03:07:43;102668.91;;;12.83;64.27
64853;BME280;56050;55.558;-4.644;2023-05-24T03:10:08;102663.84;;;12.81;64.35
64853;BME280;56050;55.558;-4.644;2023-05-24T03:12:34;102668.50;;;12.81;64.48
64853;BME280;56050;55.558;-4.644;2023-05-24T03:14:59;102668.50;;;12.81;64.37
64853;BME280;56050;55.558;-4.644;2023-05-24T03:17:25;102672.31;;;12.80;64.42
64853;BME280;56050;55.558;-4.644;2023-05-24T03:19:50;102670.41;;;12.80;64.58
64853;BME280;56050;55.558;-4.644;2023-05-24T03:22:17;102668.13;;;12.82;64.83
64853;BME280;56050;55.558;-4.644;2023-05-24T03:24:42;102662.38;;;12.84;64.71
64853;BME280;56050;55.558;-4.644;2023-05-24T03:27:08;102663.59;;;12.86;64.74
64853;BME280;56050;55.558;-4.644;2023-05-24T03:29:33;102660.88;;;12.86;64.53
64853;BME280;56050;55.558;-4.644;2023-05-24T03:31:59;102658.94;;;12.87;64.57
64853;BME280;56050;55.558;-4.644;2023-05-24T03:34:24;102671.69;;;12.86;64.51
64853;BME280;56050;55.558;-4.644;2023-05-24T03:36:50;102673.25;;;12.87;64.51
64853;BME280;56050;55.558;-4.644;2023-05-24T03:39:15;102677.88;;;12.87;64.55
64853;BME280;56050;55.558;-4.644;2023-05-24T03:41:40;102673.25;;;12.87;64.48
64853;BME280;56050;55.558;-4.644;2023-05-24T03:44:06;102677.13;;;12.86;64.66
64853;BME280;56050;55.558;-4.644;2023-05-24T03:46:31;102682.53;;;12.86;64.65
64853;BME280;56050;55.558;-4.644;2023-05-24T03:48:57;102681.72;;;12.86;64.82
64853;BME280;56050;55.558;-4.644;2023-05-24T03:51:22;102673.97;;;12.84;64.92
64853;BME280;56050;55.558;-4.644;2023-05-24T03:53:56;102683.56;;;12.82;64.89
64853;BME280;56050;55.558;-4.644;2023-05-24T03:56:22;102680.06;;;12.81;64.77
64853;BME280;56050;55.558;-4.644;2023-05-24T03:58:47;102680.06;;;12.81;64.99
64853;BME280;56050;55.558;-4.644;2023-05-24T04:01:13;102679.31;;;12.81;65.08
64853;BME280;56050;55.558;-4.644;2023-05-24T04:03:38;102681.56;;;12.79;65.20
64853;BME280;56050;55.558;-4.644;2023-05-24T04:06:05;102689.34;;;12.80;65.21
64853;BME280;56050;55.558;-4.644;2023-05-24T04:08:30;102680.06;;;12.81;65.30
64853;BME280;56050;55.558;-4.644;2023-05-24T04:10:56;102685.94;;;12.83;65.28
64853;BME280;56050;55.558;-4.644;2023-05-24T04:13:21;102686.34;;;12.85;65.45
64853;BME280;56050;55.558;-4.644;2023-05-24T04:15:46;102683.28;;;12.87;65.77
64853;BME280;56050;55.558;-4.644;2023-05-24T04:18:12;102680.94;;;12.85;65.65
64853;BME280;56050;55.558;-4.644;2023-05-24T04:20:38;102682.53;;;12.86;65.29
64853;BME280;56050;55.558;-4.644;2023-05-24T04:23:03;102683.28;;;12.87;65.23
64853;BME280;56050;55.558;-4.644;2023-05-24T04:25:28;102680.25;;;12.88;65.13
64853;BME280;56050;55.558;-4.644;2023-05-24T04:27:54;102687.56;;;12.88;65.08
64853;BME280;56050;55.558;-4.644;2023-05-24T04:30:20;102691.06;;;12.88;64.90
64853;BME280;56050;55.558;-4.644;2023-05-24T04:32:46;102684.06;;;12.87;64.84
64853;BME280;56050;55.558;-4.644;2023-05-24T04:35:12;102679.44;;;12.88;64.55
64853;BME280;56050;55.558;-4.644;2023-05-24T04:37:38;102681.03;;;12.89;64.38
64853;BME280;56050;55.558;-4.644;2023-05-24T04:40:08;102685.28;;;12.90;64.28
64853;BME280;56050;55.558;-4.644;2023-05-24T04:42:34;102692.69;;;12.93;63.93
64853;BME280;56050;55.558;-4.644;2023-05-24T04:45:00;102695.06;;;12.94;63.82
64853;BME280;56050;55.558;-4.644;2023-05-24T04:47:26;102693.56;;;12.97;63.77
64853;BME280;56050;55.558;-4.644;2023-05-24T04:49:51;102693.28;;;13.02;63.65
64853;BME280;56050;55.558;-4.644;2023-05-24T04:52:17;102701.47;;;13.06;63.81
64853;BME280;56050;55.558;-4.644;2023-05-24T04:54:43;102699.31;;;13.11;63.51
64853;BME280;56050;55.558;-4.644;2023-05-24T04:57:08;102708.28;;;13.15;63.61
64853;BME280;56050;55.558;-4.644;2023-05-24T04:59:34;102701.38;;;13.18;63.78
64853;BME280;56050;55.558;-4.644;2023-05-24T05:01:59;102701.03;;;13.19;63.81
64853;BME280;56050;55.558;-4.644;2023-05-24T05:04:25;102698.38;;;13.23;63.80
64853;BME280;56050;55.558;-4.644;2023-05-24T05:06:50;102701.88;;;13.23;63.70
64853;BME280;56050;55.558;-4.644;2023-05-24T05:09:16;102704.22;;;13.25;63.54
64853;BME280;56050;55.558;-4.644;2023-05-24T05:11:43;102710.00;;;13.23;63.49
64853;BME280;56050;55.558;-4.644;2023-05-24T05:14:10;102712.69;;;13.23;63.46
64853;BME280;56050;55.558;-4.644;2023-05-24T05:16:36;102703.72;;;13.19;63.23
64853;BME280;56050;55.558;-4.644;2023-05-24T05:19:02;102708.28;;;13.15;63.09
64853;BME280;56050;55.558;-4.644;2023-05-24T05:21:29;102710.94;;;13.12;63.03
64853;BME280;56050;55.558;-4.644;2023-05-24T05:23:58;102710.47;;;13.10;62.98
64853;BME280;56050;55.558;-4.644;2023-05-24T05:26:23;102717.09;;;13.12;62.75
64853;BME280;56050;55.558;-4.644;2023-05-24T05:28:48;102714.06;;;13.14;62.75
64853;BME280;56050;55.558;-4.644;2023-05-24T05:31:14;102720.31;;;13.18;62.31
64853;BME280;56050;55.558;-4.644;2023-05-24T05:33:40;102713.06;;;13.22;62.01
64853;BME280;56050;55.558;-4.644;2023-05-24T05:36:05;102725.19;;;13.28;61.94
64853;BME280;56050;55.558;-4.644;2023-05-24T05:38:30;102723.72;;;13.34;61.85
64853;BME280;56050;55.558;-4.644;2023-05-24T05:40:56;102731.22;;;13.40;61.86
64853;BME280;56050;55.558;-4.644;2023-05-24T05:43:21;102726.31;;;13.46;61.39
64853;BME280;56050;55.558;-4.644;2023-05-24T05:45:47;102728.72;;;13.51;61.23
64853;BME280;56050;55.558;-4.644;2023-05-24T05:48:12;102714.84;;;13.52;61.09
64853;BME280;56050;55.558;-4.644;2023-05-24T05:50:37;102719.09;;;13.53;61.20
64853;BME280;56050;55.558;-4.644;2023-05-24T05:53:03;102725.72;;;13.56;61.45
64853;BME280;56050;55.558;-4.644;2023-05-24T05:55:28;102735.09;;;13.59;61.37
64853;BME280;56050;55.558;-4.644;2023-05-24T05:57:54;102735.44;;;13.57;61.42
64853;BME280;56050;55.558;-4.644;2023-05-24T06:00:20;102744.69;;;13.56;61.63
64853;BME280;56050;55.558;-4.644;2023-05-24T06:02:46;102753.25;;;13.58;61.90
64853;BME280;56050;55.558;-4.644;2023-05-24T06:05:11;102750.56;;;13.58;61.70
64853;BME280;56050;55.558;-4.644;2023-05-24T06:07:37;102749.84;;;13.61;61.97
64853;BME280;56050;55.558;-4.644;2023-05-24T06:10:02;102752.19;;;13.63;62.02
64853;BME280;56050;55.558;-4.644;2023-05-24T06:12:28;102758.00;;;13.65;62.34
64853;BME280;56050;55.558;-4.644;2023-05-24T06:14:53;102755.31;;;13.65;62.14
64853;BME280;56050;55.558;-4.644;2023-05-24T06:17:23;102747.97;;;13.65;62.36
64853;BME280;56050;55.558;-4.644;2023-05-24T06:19:49;102756.88;;;13.66;62.82
64853;BME280;56050;55.558;-4.644;2023-05-24T06:22:18;102759.22;;;13.67;62.92
64853;BME280;56050;55.558;-4.644;2023-05-24T06:24:44;102758.47;;;13.67;62.78
64853;BME280;56050;55.558;-4.644;2023-05-24T06:27:09;102767.34;;;13.67;63.01
64853;BME280;56050;55.558;-4.644;2023-05-24T06:29:35;102767.34;;;13.67;63.04
64853;BME280;56050;55.558;-4.644;2023-05-24T06:32:00;102767.34;;;13.67;62.77
64853;BME280;56050;55.558;-4.644;2023-05-24T06:34:26;102775.47;;;13.67;62.93
64853;BME280;56050;55.558;-4.644;2023-05-24T06:36:51;102778.56;;;13.66;63.04
64853;BME280;56050;55.558;-4.644;2023-05-24T06:39:17;102777.75;;;13.65;62.85
64853;BME280;56050;55.558;-4.644;2023-05-24T06:41:43;102776.63;;;13.66;62.86
64853;BME280;56050;55.558;-4.644;2023-05-24T06:44:10;102778.63;;;13.69;62.94
64853;BME280;56050;55.558;-4.644;2023-05-24T06:46:35;102788.03;;;13.75;63.16
64853;BME280;56050;55.558;-4.644;2023-05-24T06:49:01;102781.63;;;13.83;63.23
64853;BME280;56050;55.558;-4.644;2023-05-24T06:51:27;102780.53;;;13.88;62.76
64853;BME280;56050;55.558;-4.644;2023-05-24T06:53:53;102770.13;;;13.90;62.68
64853;BME280;56050;55.558;-4.644;2023-05-24T06:56:18;102783.75;;;13.93;62.11
64853;BME280;56050;55.558;-4.644;2023-05-24T06:58:44;102789.22;;;13.97;61.98
64853;BME280;56050;55.558;-4.644;2023-05-24T07:01:10;102785.03;;;13.99;62.07
64853;BME280;56050;55.558;-4.644;2023-05-24T07:03:36;102794.44;;;14.05;61.76
64853;BME280;56050;55.558;-4.644;2023-05-24T07:06:02;102782.50;;;14.10;61.75
64853;BME280;56050;55.558;-4.644;2023-05-24T07:08:28;102785.63;;;14.12;61.78
64853;BME280;56050;55.558;-4.644;2023-05-24T07:10:54;102778.69;;;14.14;61.94
64853;BME280;56050;55.558;-4.644;2023-05-24T07:13:20;102784.13;;;14.14;61.79
64853;BME280;56050;55.558;-4.644;2023-05-24T07:15:45;102779.06;;;14.13;61.62
64853;BME280;56050;55.558;-4.644;2023-05-24T07:18:11;102783.72;;;14.12;61.75
64853;BME280;56050;55.558;-4.644;2023-05-24T07:20:37;102784.91;;;14.15;61.67
64853;BME280;56050;55.558;-4.644;2023-05-24T07:23:02;102788.75;;;14.14;61.66
64853;BME280;56050;55.558;-4.644;2023-05-24T07:25:29;102778.38;;;14.16;61.77
64853;BME280;56050;55.558;-4.644;2023-05-24T07:27:54;102790.00;;;14.17;61.39
64853;BME280;56050;55.558;-4.644;2023-05-24T07:30:19;102791.19;;;14.19;61.14
64853;BME280;56050;55.558;-4.644;2023-05-24T07:32:46;102788.91;;;14.21;60.29
64853;BME280;56050;55.558;-4.644;2023-05-24T07:35:11;102791.97;;;14.20;60.13
64853;BME280;56050;55.558;-4.644;2023-05-24T07:37:37;102801.66;;;14.21;60.25
64853;BME280;56050;55.558;-4.644;2023-05-24T07:40:03;102798.97;;;14.21;60.09
64853;BME280;56050;55.558;-4.644;2023-05-24T07:42:29;102806.78;;;14.26;60.48
64853;BME280;56050;55.558;-4.644;2023-05-24T07:44:55;102802.31;;;14.33;60.30
64853;BME280;56050;55.558;-4.644;2023-05-24T07:47:21;102804.84;;;14.45;60.50
64853;BME280;56050;55.558;-4.644;2023-05-24T07:49:46;102817.44;;;14.57;60.00
64853;BME280;56050;55.558;-4.644;2023-05-24T07:52:12;102814.44;;;14.62;59.77
64853;BME280;56050;55.558;-4.644;2023-05-24T07:54:37;102813.28;;;14.63;59.94
64853;BME280;56050;55.558;-4.644;2023-05-24T07:57:03;102824.56;;;14.65;59.86
64853;BME280;56050;55.558;-4.644;2023-05-24T07:59:28;102834.63;;;14.64;59.79
64853;BME280;56050;55.558;-4.644;2023-05-24T08:01:54;102829.97;;;14.65;59.84
64853;BME280;56050;55.558;-4.644;2023-05-24T08:04:20;102834.69;;;14.68;59.71
64853;BME280;56050;55.558;-4.644;2023-05-24T08:06:46;102833.91;;;14.67;59.58
64853;BME280;56050;55.558;-4.644;2023-05-24T08:09:11;102828.47;;;14.67;59.74
64853;BME280;56050;55.558;-4.644;2023-05-24T08:11:36;102835.88;;;14.70;59.76
64853;BME280;56050;55.558;-4.644;2023-05-24T08:14:02;102830.09;;;14.72;59.74
64853;BME280;56050;55.558;-4.644;2023-05-24T08:16:28;102837.50;;;14.75;59.55
64853;BME280;56050;55.558;-4.644;2023-05-24T08:18:53;102835.59;;;14.76;59.74
64853;BME280;56050;55.558;-4.644;2023-05-24T08:21:19;102836.38;;;14.76;59.80
64853;BME280;56050;55.558;-4.644;2023-05-24T08:23:44;102825.94;;;14.78;59.94
64853;BME280;56050;55.558;-4.644;2023-05-24T08:26:09;102837.97;;;14.81;60.00
64853;BME280;56050;55.558;-4.644;2023-05-24T08:28:35;102836.47;;;14.83;59.78
64853;BME280;56050;55.558;-4.644;2023-05-24T08:31:00;102832.28;;;14.86;59.83
64853;BME280;56050;55.558;-4.644;2023-05-24T08:33:26;102839.25;;;14.87;59.96
64853;BME280;56050;55.558;-4.644;2023-05-24T08:35:53;102833.03;;;14.86;59.94
64853;BME280;56050;55.558;-4.644;2023-05-24T08:38:18;102830.69;;;14.85;60.00
64853;BME280;56050;55.558;-4.644;2023-05-24T08:40:44;102839.25;;;14.87;60.36
64853;BME280;56050;55.558;-4.644;2023-05-24T08:43:10;102840.50;;;14.93;60.36
64853;BME280;56050;55.558;-4.644;2023-05-24T08:45:37;102846.78;;;14.97;60.45
64853;BME280;56050;55.558;-4.644;2023-05-24T08:48:04;102847.56;;;14.97;60.13
64853;BME280;56050;55.558;-4.644;2023-05-24T08:50:31;102848.72;;;14.96;60.18
64853;BME280;56050;55.558;-4.644;2023-05-24T08:52:58;102851.44;;;14.96;60.37
64853;BME280;56050;55.558;-4.644;2023-05-24T08:55:24;102849.94;;;14.99;60.27
64853;BME280;56050;55.558;-4.644;2023-05-24T08:57:50;102855.75;;;15.01;60.28
64853;BME280;56050;55.558;-4.644;2023-05-24T09:00:17;102862.72;;;14.98;60.16
64853;BME280;56050;55.558;-4.644;2023-05-24T09:02:44;102859.56;;;14.96;60.08
64853;BME280;56050;55.558;-4.644;2023-05-24T09:05:12;102862.63;;;14.95;60.17
64853;BME280;56050;55.558;-4.644;2023-05-24T09:07:48;102860.72;;;14.95;60.34
64853;BME280;56050;55.558;-4.644;2023-05-24T09:10:14;102863.06;;;14.97;60.15
64853;BME280;56050;55.558;-4.644;2023-05-24T09:12:44;102863.50;;;14.99;60.30
64853;BME280;56050;55.558;-4.644;2023-05-24T09:15:11;102861.56;;;14.99;60.38
64853;BME280;56050;55.558;-4.644;2023-05-24T09:17:37;102863.91;;;15.01;60.28
64853;BME280;56050;55.558;-4.644;2023-05-24T09:20:05;102859.63;;;15.00;60.17
64853;BME280;56050;55.558;-4.644;2023-05-24T09:22:34;102868.97;;;15.02;60.20
64853;BME280;56050;55.558;-4.644;2023-05-24T09:25:02;102865.47;;;15.02;60.19
64853;BME280;56050;55.558;-4.644;2023-05-24T09:27:30;102866.69;;;15.04;60.15
64853;BME280;56050;55.558;-4.644;2023-05-24T09:29:56;102868.31;;;15.09;60.19
64853;BME280;56050;55.558;-4.644;2023-05-24T09:32:22;102861.41;;;15.15;60.17
64853;BME280;56050;55.558;-4.644;2023-05-24T09:34:52;102854.84;;;15.16;60.08
64853;BME280;56050;55.558;-4.644;2023-05-24T09:37:22;102856.03;;;15.18;60.07
64853;BME280;56050;55.558;-4.644;2023-05-24T09:39:49;102856.06;;;15.22;60.23
64853;BME280;56050;55.558;-4.644;2023-05-24T09:42:21;102854.63;;;15.28;60.09
64853;BME280;56050;55.558;-4.644;2023-05-24T09:45:05;102858.97;;;15.33;60.09
64853;BME280;56050;55.558;-4.644;2023-05-24T09:47:35;102859.13;;;15.43;59.67
64853;BME280;56050;55.558;-4.644;2023-05-24T09:50:04;102861.94;;;15.50;59.69
64853;BME280;56050;55.558;-4.644;2023-05-24T09:52:35;102862.00;;;15.54;59.49
64853;BME280;56050;55.558;-4.644;2023-05-24T09:55:18;102864.31;;;15.52;59.70
64853;BME280;56050;55.558;-4.644;2023-05-24T09:58:07;102862.69;;;15.47;59.76
64853;BME280;56050;55.558;-4.644;2023-05-24T10:00:39;102866.06;;;15.41;59.81
64853;BME280;56050;55.558;-4.644;2023-05-24T10:03:07;102860.16;;;15.35;59.86
64853;BME280;56050;55.558;-4.644;2023-05-24T10:05:34;102861.69;;;15.33;59.99
64853;BME280;56050;55.558;-4.644;2023-05-24T10:08:00;102866.38;;;15.36;60.09
64853;BME280;56050;55.558;-4.644;2023-05-24T10:10:27;102866.41;;;15.39;60.26
64853;BME280;56050;55.558;-4.644;2023-05-24T10:12:55;102869.28;;;15.46;60.04
64853;BME280;56050;55.558;-4.644;2023-05-24T10:15:20;102874.41;;;15.51;59.81
64853;BME280;56050;55.558;-4.644;2023-05-24T10:17:46;102875.59;;;15.54;59.86
64853;BME280;56050;55.558;-4.644;2023-05-24T10:20:11;102874.41;;;15.55;60.08
64853;BME280;56050;55.558;-4.644;2023-05-24T10:22:40;102882.22;;;15.56;60.01
64853;BME280;56050;55.558;-4.644;2023-05-24T10:25:08;102878.31;;;15.54;60.02
64853;BME280;56050;55.558;-4.644;2023-05-24T10:27:37;102879.44;;;15.53;60.15
64853;BME280;56050;55.558;-4.644;2023-05-24T10:32:32;102881.81;;;15.54;60.29
64853;BME280;56050;55.558;-4.644;2023-05-24T10:34:59;102878.72;;;15.56;60.32
64853;BME280;56050;55.558;-4.644;2023-05-24T10:37:25;102883.81;;;15.57;60.11
64853;BME280;56050;55.558;-4.644;2023-05-24T10:39:51;102881.50;;;15.59;60.04
64853;BME280;56050;55.558;-4.644;2023-05-24T10:42:17;102876.13;;;15.63;60.24
64853;BME280;56050;55.558;-4.644;2023-05-24T10:44:43;102882.38;;;15.67;59.99
64853;BME280;56050;55.558;-4.644;2023-05-24T10:47:12;102883.97;;;15.71;60.29
64853;BME280;56050;55.558;-4.644;2023-05-24T10:49:50;102876.66;;;15.75;59.82
64853;BME280;56050;55.558;-4.644;2023-05-24T10:52:17;102877.44;;;15.76;59.96
64853;BME280;56050;55.558;-4.644;2023-05-24T10:55:08;102885.59;;;15.76;59.69
64853;BME280;56050;55.558;-4.644;2023-05-24T10:57:34;102882.56;;;15.81;59.80
64853;BME280;56050;55.558;-4.644;2023-05-24T11:02:50;102885.03;;;15.93;59.58
64853;BME280;56050;55.558;-4.644;2023-05-24T11:05:16;102881.16;;;15.94;59.63
64853;BME280;56050;55.558;-4.644;2023-05-24T11:07:42;102874.19;;;15.97;59.45
64853;BME280;56050;55.558;-4.644;2023-05-24T11:10:15;102871.53;;;16.00;59.54
64853;BME280;56050;55.558;-4.644;2023-05-24T11:12:43;102871.56;;;16.04;59.33
64853;BME280;56050;55.558;-4.644;2023-05-24T11:15:09;102876.69;;;16.09;59.36
64853;BME280;56050;55.558;-4.644;2023-05-24T11:20:38;102874.91;;;16.23;59.17
64853;BME280;56050;55.558;-4.644;2023-05-24T11:23:04;102877.75;;;16.34;59.19
64853;BME280;56050;55.558;-4.644;2023-05-24T11:25:32;102873.94;;;16.42;59.33
64853;BME280;56050;55.558;-4.644;2023-05-24T11:27:58;102881.78;;;16.51;59.26
64853;BME280;56050;55.558;-4.644;2023-05-24T11:30:25;102870.50;;;16.49;59.09
64853;BME280;56050;55.558;-4.644;2023-05-24T11:32:51;102866.56;;;16.42;59.12
64853;BME280;56050;55.558;-4.644;2023-05-24T11:35:18;102870.38;;;16.38;59.65
64853;BME280;56050;55.558;-4.644;2023-05-24T11:37:43;102870.72;;;16.33;59.73
64853;BME280;56050;55.558;-4.644;2023-05-24T11:40:10;102876.53;;;16.31;59.99
64853;BME280;56050;55.558;-4.644;2023-05-24T11:42:36;102876.94;;;16.33;60.15
64853;BME280;56050;55.558;-4.644;2023-05-24T11:45:03;102876.94;;;16.33;60.16
64853;BME280;56050;55.558;-4.644;2023-05-24T11:47:29;102880.38;;;16.27;60.06
64853;BME280;56050;55.558;-4.644;2023-05-24T11:49:54;102876.47;;;16.24;60.54
64853;BME280;56050;55.558;-4.644;2023-05-24T11:52:20;102877.34;;;16.32;61.40
64853;BME280;56050;55.558;-4.644;2023-05-24T11:54:46;102878.63;;;16.45;60.87
64853;BME280;56050;55.558;-4.644;2023-05-24T11:57:12;102883.72;;;16.50;60.53
64853;BME280;56050;55.558;-4.644;2023-05-24T11:59:40;102882.16;;;16.49;60.42
64853;BME280;56050;55.558;-4.644;2023-05-24T12:02:05;102888.38;;;16.50;60.35
64853;BME280;56050;55.558;-4.644;2023-05-24T12:04:33;102883.28;;;16.44;60.01
64853;BME280;56050;55.558;-4.644;2023-05-24T12:07:00;102883.63;;;16.39;60.38
64853;BME280;56050;55.558;-4.644;2023-05-24T12:09:26;102881.66;;;16.36;60.58
64853;BME280;56050;55.558;-4.644;2023-05-24T12:11:52;102890.59;;;16.37;60.60
64853;BME280;56050;55.558;-4.644;2023-05-24T12:14:23;102882.00;;;16.35;60.87
64853;BME280;56050;55.558;-4.644;2023-05-24T12:16:53;102881.25;;;16.34;60.87
64853;BME280;56050;55.558;-4.644;2023-05-24T12:19:20;102874.56;;;16.28;60.75
64853;BME280;56050;55.558;-4.644;2023-05-24T12:21:47;102879.91;;;16.21;61.11
64853;BME280;56050;55.558;-4.644;2023-05-24T12:24:16;102873.28;;;16.19;61.22
64853;BME280;56050;55.558;-4.644;2023-05-24T12:26:48;102879.09;;;16.17;61.36
64853;BME280;56050;55.558;-4.644;2023-05-24T12:29:15;102871.75;;;16.21;61.19
64853;BME280;56050;55.558;-4.644;2023-05-24T12:31:42;102876.50;;;16.28;61.41
64853;BME280;56050;55.558;-4.644;2023-05-24T12:34:16;102880.47;;;16.34;60.81
64853;BME280;56050;55.558;-4.644;2023-05-24T12:36:42;102875.88;;;16.41;60.61
64853;BME280;56050;55.558;-4.644;2023-05-24T12:39:18;102873.59;;;16.47;60.62
64853;BME280;56050;55.558;-4.644;2023-05-24T12:41:44;102885.66;;;16.50;59.95
64853;BME280;56050;55.558;-4.644;2023-05-24T12:44:10;102880.63;;;16.52;59.95
64853;BME280;56050;55.558;-4.644;2023-05-24T12:46:36;102880.75;;;16.59;59.80
64853;BME280;56050;55.558;-4.644;2023-05-24T12:49:02;102883.91;;;16.64;59.68
64853;BME280;56050;55.558;-4.644;2023-05-24T12:51:29;102884.75;;;16.72;59.69
64853;BME280;56050;55.558;-4.644;2023-05-24T12:53:55;102880.16;;;16.83;59.37
64853;BME280;56050;55.558;-4.644;2023-05-24T12:56:21;102879.47;;;16.93;59.33
64853;BME280;56050;55.558;-4.644;2023-05-24T12:58:47;102872.16;;;17.04;59.38
64853;BME280;56050;55.558;-4.644;2023-05-24T13:01:12;102879.25;;;17.12;58.76
64853;BME280;56050;55.558;-4.644;2023-05-24T13:03:38;102879.69;;;17.21;58.88